Time;durP1;ratioP1;P1;durP2;ratioP2;P2;SDS_P1;SDS_P2;PMS_P1;PMS_P2;Temp;Humidity;BMP_temperature;BMP_pressure;BME280_temperature;BME280_humidity;BME280_pressure;Samples;Min_cycle;Max_cycle;Signal;HPM_P1;HPM_P2
2022/07/28 00:01:04;;;;;;;5.47;1.60;;;13.40;99.90;;;;;;5036592;28;20035;-78
2022/07/28 00:03:29;;;;;;;5.85;2.42;;;13.40;99.90;;;;;;5038755;28;20025;-78
2022/07/28 00:05:55;;;;;;;6.60;1.73;;;13.40;99.90;;;;;;5030322;28;20031;-78
2022/07/28 00:08:20;;;;;;;15.07;2.90;;;13.30;99.90;;;;;;5029648;28;20033;-78
2022/07/28 00:10:46;;;;;;;15.75;2.17;;;13.30;99.90;;;;;;5030183;28;20104;-78
2022/07/28 00:13:11;;;;;;;4.05;1.50;;;13.30;99.90;;;;;;5030346;28;20029;-78
2022/07/28 00:15:37;;;;;;;8.52;1.58;;;13.30;99.90;;;;;;5018804;28;20087;-78
2022/07/28 00:18:03;;;;;;;7.00;1.77;;;13.30;99.90;;;;;;5027726;28;20029;-78
2022/07/28 00:20:29;;;;;;;10.93;1.90;;;13.20;99.90;;;;;;5029168;28;20105;-78
2022/07/28 00:22:55;;;;;;;10.93;1.65;;;13.20;99.90;;;;;;5031737;28;20381;-78
2022/07/28 00:25:20;;;;;;;7.60;2.05;;;13.20;99.90;;;;;;5035684;28;20022;-78
2022/07/28 00:27:47;;;;;;;6.90;1.60;;;13.20;99.90;;;;;;5034712;28;20580;-78
2022/07/28 00:30:12;;;;;;;3.95;1.35;;;13.20;99.90;;;;;;5035336;28;20453;-78
2022/07/28 00:32:38;;;;;;;8.40;1.80;;;13.20;99.90;;;;;;5033619;28;20163;-78
2022/07/28 00:35:05;;;;;;;4.15;1.80;;;13.20;99.90;;;;;;5030741;28;20034;-78
2022/07/28 00:37:30;;;;;;;6.95;1.77;;;13.10;99.90;;;;;;5019100;28;20022;-78
2022/07/28 00:39:56;;;;;;;6.60;1.60;;;13.10;99.90;;;;;;5032779;28;20040;-79
2022/07/28 00:42:21;;;;;;;7.75;1.65;;;13.10;99.90;;;;;;5033322;28;20528;-78
2022/07/28 00:44:47;;;;;;;7.15;1.63;;;13.10;99.90;;;;;;5035010;28;20034;-78
2022/07/28 00:47:13;;;;;;;5.35;2.05;;;13.00;99.90;;;;;;5033269;28;20040;-78
2022/07/28 00:49:39;;;;;;;9.25;1.80;;;13.00;99.90;;;;;;5034142;28;20028;-78
2022/07/28 00:52:07;;;;;;;3.50;1.40;;;13.00;99.90;;;;;;5034781;28;20068;-78
2022/07/28 00:54:33;;;;;;;4.82;1.70;;;13.00;99.90;;;;;;5033261;28;20044;-78
2022/07/28 00:56:59;;;;;;;6.43;1.63;;;12.90;99.90;;;;;;5026069;28;20029;-78
2022/07/28 00:59:25;;;;;;;11.75;2.08;;;13.00;99.90;;;;;;5032528;28;20463;-78
2022/07/28 01:01:51;;;;;;;4.38;1.83;;;12.90;99.90;;;;;;5034101;28;20029;-78
2022/07/28 01:04:17;;;;;;;7.32;2.45;;;12.90;99.90;;;;;;5032852;28;20026;-78
2022/07/28 01:07:40;;;;;;;5.97;1.80;;;12.90;99.90;;;;;;5033253;28;20484;-78
2022/07/28 01:10:11;;;;;;;11.02;2.65;;;12.80;99.90;;;;;;4972913;28;20041;-78
2022/07/28 01:12:54;;;;;;;5.28;1.42;;;12.80;99.90;;;;;;5035143;28;20030;-79
2022/07/28 01:15:32;;;;;;;7.07;1.85;;;12.70;99.90;;;;;;5031571;28;20491;-78
2022/07/28 01:18:09;;;;;;;6.07;1.30;;;12.70;99.90;;;;;;5014903;28;20033;-78
2022/07/28 01:20:38;;;;;;;5.57;1.38;;;12.70;99.90;;;;;;5032092;28;20920;-78
2022/07/28 01:23:32;;;;;;;7.03;1.50;;;12.70;99.90;;;;;;5034536;28;20030;-78
2022/07/28 01:26:15;;;;;;;5.53;1.35;;;12.60;99.90;;;;;;5032527;28;20419;-78
2022/07/28 01:29:18;;;;;;;6.70;1.77;;;12.60;99.90;;;;;;5015037;28;20099;-78
2022/07/28 01:31:58;;;;;;;4.40;1.23;;;12.60;99.90;;;;;;5031074;28;20465;-78
2022/07/28 01:34:30;;;;;;;8.82;1.52;;;12.50;99.90;;;;;;5033061;28;20059;-78
2022/07/28 01:37:03;;;;;;;4.75;1.60;;;12.50;99.90;;;;;;5034834;28;20381;-78
2022/07/28 01:39:32;;;;;;;5.32;1.50;;;12.50;99.90;;;;;;5034163;28;20458;-78
2022/07/28 01:42:00;;;;;;;3.28;1.58;;;12.40;99.90;;;;;;5016723;28;20029;-78
2022/07/28 01:44:27;;;;;;;7.47;2.20;;;12.40;99.90;;;;;;5031843;28;20029;-78
2022/07/28 01:46:56;;;;;;;5.30;1.75;;;12.30;99.90;;;;;;5034286;28;20071;-79
2022/07/28 01:49:25;;;;;;;6.85;1.60;;;12.30;99.90;;;;;;5034557;28;20022;-78
2022/07/28 01:51:53;;;;;;;7.68;1.73;;;12.30;99.90;;;;;;5033808;28;20030;-78
2022/07/28 01:54:21;;;;;;;4.95;1.52;;;12.30;99.90;;;;;;5032489;28;20025;-78
2022/07/28 01:56:50;;;;;;;6.95;1.85;;;12.20;99.90;;;;;;5016565;28;20036;-78
2022/07/28 01:59:16;;;;;;;8.93;1.70;;;12.30;99.90;;;;;;5031249;28;20029;-78
2022/07/28 02:01:44;;;;;;;4.28;1.70;;;12.30;99.90;;;;;;5032258;28;20029;-78
2022/07/28 02:04:11;;;;;;;5.30;1.83;;;12.30;99.90;;;;;;5032379;28;20499;-78
2022/07/28 02:06:39;;;;;;;4.65;1.50;;;12.20;99.90;;;;;;5030874;28;20029;-78
2022/07/28 02:09:06;;;;;;;14.13;1.45;;;12.20;99.90;;;;;;5033468;28;20033;-78
2022/07/28 02:11:39;;;;;;;4.47;1.70;;;12.20;99.90;;;;;;5021899;28;20022;-78
2022/07/28 02:14:15;;;;;;;6.43;1.42;;;12.10;99.90;;;;;;5017993;28;20030;-79
2022/07/28 02:16:47;;;;;;;3.15;1.40;;;12.10;99.90;;;;;;5017399;28;20369;-79
2022/07/28 02:19:13;;;;;;;4.35;1.65;;;12.10;99.90;;;;;;5026600;28;20026;-78
2022/07/28 02:21:39;;;;;;;6.13;1.35;;;12.10;99.90;;;;;;5034127;28;20030;-78
2022/07/28 02:24:07;;;;;;;3.63;1.33;;;12.10;99.90;;;;;;5031678;28;20037;-78
2022/07/28 02:26:37;;;;;;;4.78;1.35;;;12.10;99.90;;;;;;5033912;28;20477;-78
2022/07/28 02:29:05;;;;;;;3.65;1.60;;;12.00;99.90;;;;;;5023408;28;20132;-78
2022/07/28 02:32:03;;;;;;;4.72;1.45;;;12.00;99.90;;;;;;5031019;28;20407;-78
2022/07/28 02:34:30;;;;;;;4.13;1.40;;;12.00;99.90;;;;;;5018427;28;20045;-78
2022/07/28 02:36:59;;;;;;;3.92;1.70;;;12.00;99.90;;;;;;5032806;28;20047;-78
2022/07/28 02:39:31;;;;;;;8.00;1.92;;;11.90;99.90;;;;;;5052161;28;20029;-78
2022/07/28 02:42:05;;;;;;;7.85;1.92;;;11.90;99.90;;;;;;5027335;28;20037;-78
2022/07/28 02:44:38;;;;;;;11.00;1.85;;;11.80;99.90;;;;;;5032366;28;20018;-78
2022/07/28 02:47:07;;;;;;;5.05;1.90;;;11.80;99.90;;;;;;5037827;28;20104;-78
2022/07/28 02:49:35;;;;;;;6.28;2.50;;;11.80;99.90;;;;;;5033115;28;20041;-79
2022/07/28 02:52:03;;;;;;;6.50;1.75;;;11.80;99.90;;;;;;5031340;28;20534;-78
2022/07/28 02:54:31;;;;;;;5.05;1.80;;;11.80;99.90;;;;;;5029990;28;20033;-78
2022/07/28 02:56:59;;;;;;;4.97;1.35;;;11.80;99.90;;;;;;5031650;28;20022;-78
2022/07/28 02:59:26;;;;;;;4.25;1.50;;;11.80;99.90;;;;;;5031937;28;20040;-78
2022/07/28 03:01:53;;;;;;;3.35;1.63;;;11.80;99.90;;;;;;5029916;28;20030;-78
2022/07/28 03:04:55;;;;;;;8.48;2.70;;;11.80;99.90;;;;;;5027805;28;20025;-78
2022/07/28 03:07:05;;;;;;;6.07;1.92;;;11.80;99.90;;;;;;5030336;28;20033;-79
2022/07/28 03:09:42;;;;;;;5.15;1.63;;;11.80;99.90;;;;;;5031835;28;20031;-78
2022/07/28 03:12:09;;;;;;;2.47;1.40;;;11.70;99.90;;;;;;5040566;28;20040;-78
2022/07/28 03:14:34;;;;;;;3.50;1.63;;;11.70;99.90;;;;;;5031847;28;20021;-78
2022/07/28 03:17:00;;;;;;;2.90;1.40;;;11.70;99.90;;;;;;5040851;28;20147;-78
2022/07/28 03:19:25;;;;;;;5.68;1.50;;;11.70;99.90;;;;;;5032687;28;20030;-79
2022/07/28 03:21:52;;;;;;;3.33;1.75;;;11.70;99.90;;;;;;5014249;28;20021;-78
2022/07/28 03:24:21;;;;;;;6.38;1.58;;;11.70;99.90;;;;;;5030716;28;20022;-78
2022/07/28 03:27:03;;;;;;;2.00;1.10;;;11.60;99.90;;;;;;5031201;28;20033;-78
2022/07/28 03:29:31;;;;;;;3.70;1.65;;;11.60;99.90;;;;;;5032876;28;20029;-78
2022/07/28 03:31:58;;;;;;;2.92;1.52;;;11.60;99.90;;;;;;5009338;28;20029;-78
2022/07/28 03:34:24;;;;;;;5.13;1.58;;;11.60;99.90;;;;;;5030122;28;20051;-78
2022/07/28 03:36:58;;;;;;;4.95;1.40;;;11.70;99.90;;;;;;5030092;28;20465;-78
2022/07/28 03:39:26;;;;;;;4.43;1.75;;;11.60;99.90;;;;;;5029923;28;20026;-78
2022/07/28 03:41:53;;;;;;;6.38;1.73;;;11.60;99.90;;;;;;5030280;28;20465;-78
2022/07/28 03:44:19;;;;;;;2.47;0.98;;;11.60;99.90;;;;;;5025067;28;20026;-78
2022/07/28 03:46:46;;;;;;;4.18;1.30;;;11.60;99.90;;;;;;5025696;28;20084;-78
2022/07/28 03:49:12;;;;;;;3.45;1.55;;;11.70;99.90;;;;;;5027473;28;20022;-78
2022/07/28 03:51:37;;;;;;;2.65;1.30;;;11.70;99.90;;;;;;5013637;28;20083;-78
2022/07/28 03:54:03;;;;;;;4.20;1.88;;;11.70;99.90;;;;;;5012539;28;20032;-78
2022/07/28 03:56:28;;;;;;;1.85;1.33;;;11.70;99.90;;;;;;5019460;28;20045;-78
2022/07/28 03:58:54;;;;;;;7.72;1.55;;;11.70;99.90;;;;;;5034622;28;20083;-78
2022/07/28 04:01:20;;;;;;;3.33;1.67;;;11.80;99.90;;;;;;5032980;28;20021;-78
2022/07/28 04:03:46;;;;;;;2.63;1.17;;;11.80;99.90;;;;;;5030535;28;20045;-78
2022/07/28 04:06:12;;;;;;;4.85;1.40;;;11.80;99.90;;;;;;5029833;28;20037;-78
2022/07/28 04:08:38;;;;;;;7.15;1.60;;;11.80;99.90;;;;;;5035561;28;20040;-78
2022/07/28 04:11:03;;;;;;;3.95;1.33;;;11.80;99.90;;;;;;5041549;28;20037;-78
2022/07/28 04:13:30;;;;;;;3.03;1.40;;;11.80;99.90;;;;;;5034431;28;20042;-78
2022/07/28 04:15:57;;;;;;;3.35;1.50;;;11.90;99.90;;;;;;5033901;28;20052;-78
2022/07/28 04:18:22;;;;;;;3.50;1.77;;;11.90;99.90;;;;;;5034780;28;20116;-78
2022/07/28 04:20:48;;;;;;;6.85;1.83;;;11.90;99.90;;;;;;5032811;28;20104;-78
2022/07/28 04:23:14;;;;;;;2.50;1.60;;;12.00;99.90;;;;;;5035265;28;20369;-78
2022/07/28 04:25:39;;;;;;;4.97;2.15;;;12.00;99.90;;;;;;5034300;28;20034;-78
2022/07/28 04:28:05;;;;;;;3.55;1.42;;;12.10;99.90;;;;;;5033707;28;20099;-78
2022/07/28 04:30:30;;;;;;;5.38;1.60;;;12.10;99.90;;;;;;5032182;28;20029;-78
2022/07/28 04:32:56;;;;;;;5.75;1.83;;;12.10;99.90;;;;;;5034722;28;20025;-78
2022/07/28 04:35:27;;;;;;;5.70;2.30;;;12.20;99.90;;;;;;5033534;28;20029;-78
2022/07/28 04:37:57;;;;;;;6.68;1.60;;;12.20;99.90;;;;;;5029323;28;20018;-78
2022/07/28 04:40:23;;;;;;;7.10;2.33;;;12.30;99.90;;;;;;5032509;28;20036;-78
2022/07/28 04:42:49;;;;;;;5.88;1.60;;;12.40;99.90;;;;;;5034698;28;20360;-78
2022/07/28 04:45:14;;;;;;;9.30;1.88;;;12.40;99.90;;;;;;5032013;28;20342;-79
2022/07/28 04:47:40;;;;;;;3.75;1.98;;;12.50;99.90;;;;;;5012720;28;20037;-79
2022/07/28 04:50:07;;;;;;;7.45;1.85;;;12.50;99.90;;;;;;5034229;28;20052;-78
2022/07/28 04:52:34;;;;;;;5.50;1.70;;;12.60;99.90;;;;;;5028199;28;20033;-79
2022/07/28 04:55:00;;;;;;;3.50;1.40;;;12.60;99.90;;;;;;5033200;28;20087;-79
2022/07/28 04:57:28;;;;;;;6.75;1.98;;;12.70;99.90;;;;;;5031970;28;20025;-79
2022/07/28 04:59:58;;;;;;;4.53;1.50;;;12.70;99.90;;;;;;5035195;28;20028;-78
2022/07/28 05:02:25;;;;;;;8.30;1.58;;;12.80;99.90;;;;;;5017082;28;20095;-79
2022/07/28 05:04:52;;;;;;;6.97;1.17;;;12.80;99.90;;;;;;5014933;28;20505;-79
2022/07/28 05:07:17;;;;;;;11.27;1.95;;;12.80;99.90;;;;;;5025336;28;20037;-78
2022/07/28 05:09:43;;;;;;;5.97;1.90;;;12.90;99.90;;;;;;5034247;28;20036;-78
2022/07/28 05:12:11;;;;;;;8.52;2.28;;;12.90;99.90;;;;;;5035311;28;20053;-79
2022/07/28 05:14:36;;;;;;;11.10;2.05;;;13.00;99.90;;;;;;5034266;28;20029;-79
2022/07/28 05:17:02;;;;;;;13.10;2.13;;;13.00;99.90;;;;;;5034834;28;20041;-78
2022/07/28 05:19:27;;;;;;;3.60;1.48;;;13.00;99.90;;;;;;5033935;28;20021;-78
2022/07/28 05:21:53;;;;;;;11.02;2.22;;;13.10;99.90;;;;;;5014814;28;20113;-79
2022/07/28 05:24:18;;;;;;;3.90;1.42;;;13.10;99.90;;;;;;5018615;28;20017;-78
2022/07/28 05:26:44;;;;;;;5.78;2.28;;;13.10;99.90;;;;;;5033802;28;20124;-78
2022/07/28 05:29:10;;;;;;;6.50;1.40;;;13.20;99.90;;;;;;5034683;28;20074;-79
2022/07/28 05:31:36;;;;;;;11.00;1.98;;;13.20;99.90;;;;;;5034523;28;20030;-79
2022/07/28 05:34:02;;;;;;;6.15;1.95;;;13.20;99.90;;;;;;5033700;28;20033;-79
2022/07/28 05:36:27;;;;;;;9.73;2.08;;;13.20;99.90;;;;;;5043268;28;20029;-79
2022/07/28 05:38:53;;;;;;;8.15;1.85;;;13.20;99.90;;;;;;5040557;28;20040;-78
2022/07/28 05:41:18;;;;;;;6.82;1.63;;;13.20;99.90;;;;;;5031003;28;20029;-79
2022/07/28 05:43:44;;;;;;;5.30;1.45;;;13.20;99.90;;;;;;5032173;28;20086;-79
2022/07/28 05:46:09;;;;;;;6.30;2.05;;;13.20;99.90;;;;;;5033619;28;20120;-79
2022/07/28 05:48:35;;;;;;;10.63;2.00;;;13.20;99.90;;;;;;5044086;28;20032;-79
2022/07/28 05:51:01;;;;;;;6.38;1.50;;;13.20;99.90;;;;;;5034100;28;20180;-79
2022/07/28 05:53:26;;;;;;;5.28;1.70;;;13.20;99.90;;;;;;5034148;28;20168;-79
2022/07/28 05:55:52;;;;;;;13.65;1.85;;;13.20;99.90;;;;;;5033597;28;20025;-79
2022/07/28 05:58:21;;;;;;;7.32;1.98;;;13.20;99.90;;;;;;5032212;28;20385;-79
2022/07/28 06:00:47;;;;;;;12.77;2.03;;;13.20;99.90;;;;;;5033845;28;20061;-79
2022/07/28 06:03:13;;;;;;;8.27;2.30;;;13.20;99.90;;;;;;5032971;28;20075;-79
2022/07/28 06:05:38;;;;;;;7.32;1.33;;;13.30;99.90;;;;;;5033415;28;20057;-79
2022/07/28 06:08:04;;;;;;;12.55;1.70;;;13.20;99.90;;;;;;5034001;28;20153;-79
2022/07/28 06:10:57;;;;;;;3.35;1.30;;;13.30;99.90;;;;;;5033960;28;20059;-79
2022/07/28 06:13:17;;;;;;;9.35;1.75;;;13.30;99.90;;;;;;5033947;28;20025;-79
2022/07/28 06:15:46;;;;;;;6.38;1.90;;;13.40;99.90;;;;;;5033020;28;20126;-78
2022/07/28 06:18:11;;;;;;;9.65;2.15;;;13.40;99.90;;;;;;5033206;28;20022;-79
2022/07/28 06:20:37;;;;;;;14.60;3.20;;;13.50;99.90;;;;;;5033429;28;20369;-79
2022/07/28 06:23:03;;;;;;;6.85;1.77;;;13.60;99.90;;;;;;5033754;28;20021;-79
2022/07/28 06:25:30;;;;;;;7.53;1.90;;;13.70;99.90;;;;;;5033106;28;20035;-79
2022/07/28 06:27:58;;;;;;;15.82;2.30;;;13.60;99.90;;;;;;5033006;28;20430;-79
2022/07/28 06:30:24;;;;;;;6.75;1.83;;;13.60;99.90;;;;;;5033040;28;20029;-79
2022/07/28 06:32:51;;;;;;;7.75;1.67;;;13.70;99.90;;;;;;5033175;28;20034;-79
2022/07/28 06:35:17;;;;;;;5.28;2.00;;;13.70;99.90;;;;;;5032827;28;20651;-79
2022/07/28 06:37:43;;;;;;;6.25;1.95;;;13.80;99.90;;;;;;5033540;28;20033;-78
2022/07/28 06:40:12;;;;;;;13.27;1.65;;;13.80;99.90;;;;;;5033244;28;20030;-79
2022/07/28 06:42:39;;;;;;;13.75;1.80;;;13.90;99.90;;;;;;5033483;28;20057;-79
2022/07/28 06:45:06;;;;;;;13.23;2.72;;;13.90;99.90;;;;;;5032804;28;20032;-79
2022/07/28 06:47:31;;;;;;;6.95;1.63;;;14.00;99.90;;;;;;5032527;28;20029;-79
2022/07/28 06:49:57;;;;;;;11.80;2.08;;;14.00;99.90;;;;;;5032658;28;20026;-78
2022/07/28 06:52:23;;;;;;;10.38;1.92;;;14.10;99.90;;;;;;5032050;28;20029;-79
2022/07/28 06:54:50;;;;;;;9.75;1.80;;;14.20;99.90;;;;;;5032569;28;20041;-78
2022/07/28 06:57:17;;;;;;;9.93;2.03;;;14.20;99.90;;;;;;5032065;28;20029;-78
2022/07/28 06:59:42;;;;;;;4.15;1.42;;;14.30;99.90;;;;;;5033367;28;20381;-79
2022/07/28 07:02:08;;;;;;;6.20;1.83;;;14.30;99.90;;;;;;5032985;28;20034;-79
2022/07/28 07:04:33;;;;;;;9.80;1.83;;;14.30;99.90;;;;;;5032058;28;20031;-78
2022/07/28 07:06:59;;;;;;;8.18;1.83;;;14.40;99.90;;;;;;5032978;28;20163;-78
2022/07/28 07:09:24;;;;;;;14.35;2.08;;;14.30;99.90;;;;;;5032881;28;20034;-78
2022/07/28 07:11:50;;;;;;;8.10;2.10;;;14.40;99.90;;;;;;5031567;28;20026;-78
2022/07/28 07:14:15;;;;;;;4.80;1.50;;;14.50;99.90;;;;;;5032556;28;20076;-79
2022/07/28 07:16:41;;;;;;;6.25;1.42;;;14.50;99.90;;;;;;5032216;28;20075;-78
2022/07/28 07:19:07;;;;;;;3.63;1.27;;;14.60;99.90;;;;;;5031990;28;20026;-78
2022/07/28 07:21:32;;;;;;;8.18;1.92;;;14.70;99.90;;;;;;5033024;28;20049;-78
2022/07/28 07:23:58;;;;;;;8.23;2.03;;;14.70;99.90;;;;;;5032330;28;20134;-78
2022/07/28 07:26:23;;;;;;;6.85;2.45;;;14.80;99.90;;;;;;5031478;28;20108;-78
2022/07/28 07:28:49;;;;;;;5.90;1.45;;;14.90;99.90;;;;;;5032594;28;20057;-78
2022/07/28 07:31:15;;;;;;;13.13;2.17;;;15.00;99.90;;;;;;5032687;28;20029;-79
2022/07/28 07:33:40;;;;;;;7.60;1.83;;;15.00;99.90;;;;;;5031745;28;20450;-78
2022/07/28 07:36:07;;;;;;;7.32;1.63;;;15.10;99.90;;;;;;5030859;28;20021;-78
2022/07/28 07:38:32;;;;;;;15.77;2.33;;;15.10;99.90;;;;;;5032113;28;20060;-78
2022/07/28 07:40:58;;;;;;;9.35;1.70;;;15.20;99.90;;;;;;5032900;28;20029;-78
2022/07/28 07:43:24;;;;;;;8.70;1.90;;;15.20;99.90;;;;;;5032663;28;20026;-78
2022/07/28 07:45:51;;;;;;;4.57;1.77;;;15.20;99.90;;;;;;5031553;28;20117;-79
2022/07/28 07:48:16;;;;;;;5.55;1.45;;;15.30;99.90;;;;;;5032148;28;20115;-78
2022/07/28 07:50:44;;;;;;;8.98;2.15;;;15.30;99.90;;;;;;5032137;28;20104;-78
2022/07/28 07:53:09;;;;;;;9.90;1.98;;;15.50;99.90;;;;;;5032462;28;20074;-78
2022/07/28 07:55:35;;;;;;;8.23;1.95;;;15.50;99.90;;;;;;5031705;28;20524;-79
2022/07/28 07:58:01;;;;;;;10.18;1.60;;;15.50;99.90;;;;;;5031731;28;20065;-78
2022/07/28 08:00:27;;;;;;;29.42;2.70;;;15.60;99.90;;;;;;5032358;28;20057;-78
2022/07/28 08:02:52;;;;;;;15.75;3.72;;;15.70;99.90;;;;;;5031858;28;20508;-78
2022/07/28 08:05:18;;;;;;;4.15;1.90;;;15.80;99.90;;;;;;5031754;28;20125;-78
2022/07/28 08:07:44;;;;;;;10.13;2.25;;;15.90;99.90;;;;;;5032139;28;20108;-79
2022/07/28 08:10:09;;;;;;;11.98;2.17;;;15.90;99.90;;;;;;5030676;28;20025;-78
2022/07/28 08:12:35;;;;;;;16.50;2.03;;;16.00;99.90;;;;;;5032356;28;20033;-78
2022/07/28 08:15:02;;;;;;;6.57;1.73;;;16.10;99.90;;;;;;5031866;28;20022;-78
2022/07/28 08:17:28;;;;;;;7.38;1.60;;;16.20;99.90;;;;;;5031795;28;20021;-78
2022/07/28 08:19:54;;;;;;;7.85;2.30;;;16.20;99.90;;;;;;5031400;28;20022;-79
2022/07/28 08:22:19;;;;;;;10.90;2.45;;;16.20;99.90;;;;;;5031880;28;20423;-78
2022/07/28 08:24:45;;;;;;;12.65;2.13;;;16.30;99.90;;;;;;5031781;28;20104;-79
2022/07/28 08:27:10;;;;;;;12.15;2.10;;;16.30;99.90;;;;;;5031438;28;20046;-78
2022/07/28 08:29:36;;;;;;;7.32;1.63;;;16.40;99.90;;;;;;5031793;28;20041;-78
2022/07/28 08:32:02;;;;;;;3.65;1.40;;;16.50;99.90;;;;;;5030420;28;20057;-79
2022/07/28 08:34:32;;;;;;;9.48;1.77;;;16.60;99.90;;;;;;5030048;28;20550;-79
2022/07/28 08:36:58;;;;;;;15.38;2.58;;;16.70;99.90;;;;;;5031583;28;20105;-78
2022/07/28 08:39:23;;;;;;;6.43;2.10;;;16.70;99.90;;;;;;5031688;28;20484;-78
2022/07/28 08:41:58;;;;;;;8.90;2.00;;;16.70;99.90;;;;;;5031512;28;20022;-79
2022/07/28 08:44:29;;;;;;;13.15;2.60;;;16.80;99.90;;;;;;5032039;28;20041;-78
2022/07/28 08:46:57;;;;;;;13.43;1.98;;;16.90;99.90;;;;;;5035165;28;20029;-78
2022/07/28 08:49:25;;;;;;;8.82;1.98;;;16.90;99.90;;;;;;5034716;28;20469;-78
2022/07/28 08:51:53;;;;;;;19.98;2.88;;;16.90;99.90;;;;;;5035011;28;20083;-78
2022/07/28 08:54:24;;;;;;;12.88;1.75;;;17.00;99.90;;;;;;5034830;28;20053;-78
2022/07/28 08:56:51;;;;;;;12.73;1.95;;;17.00;99.90;;;;;;5034800;28;20026;-79
2022/07/28 08:59:18;;;;;;;8.77;2.00;;;17.10;99.90;;;;;;5034839;28;20025;-78
2022/07/28 09:01:44;;;;;;;11.10;2.10;;;17.20;99.90;;;;;;5034879;28;20030;-79
2022/07/28 09:04:10;;;;;;;11.75;2.25;;;17.30;99.90;;;;;;5034110;28;20075;-79
2022/07/28 09:06:40;;;;;;;10.55;2.80;;;17.40;99.90;;;;;;5034818;28;20038;-78
2022/07/28 09:09:08;;;;;;;5.53;2.15;;;17.50;99.90;;;;;;5034579;28;20071;-79
2022/07/28 09:11:36;;;;;;;6.93;1.50;;;17.50;99.90;;;;;;5034815;28;20037;-79
2022/07/28 09:14:01;;;;;;;8.05;1.60;;;17.50;99.90;;;;;;5034468;28;20021;-79
2022/07/28 09:16:28;;;;;;;9.40;2.03;;;17.40;99.90;;;;;;5034641;28;20033;-78
2022/07/28 09:18:53;;;;;;;12.77;2.50;;;17.50;99.90;;;;;;5034239;28;20090;-78
2022/07/28 09:21:20;;;;;;;12.27;2.03;;;17.50;99.90;;;;;;5034500;28;20116;-79
2022/07/28 09:23:48;;;;;;;11.13;1.80;;;17.50;99.90;;;;;;5034583;28;20040;-78
2022/07/28 09:26:15;;;;;;;7.90;1.60;;;17.50;99.90;;;;;;5034336;28;20025;-78
2022/07/28 09:28:52;;;;;;;7.50;1.77;;;17.70;99.90;;;;;;5034207;28;20073;-78
2022/07/28 09:31:18;;;;;;;12.35;2.10;;;17.70;99.90;;;;;;5034114;28;20064;-78
2022/07/28 09:34:04;;;;;;;12.80;2.25;;;17.80;99.90;;;;;;5033865;28;20445;-79
2022/07/28 09:36:40;;;;;;;16.52;3.28;;;17.90;99.90;;;;;;5034111;28;20022;-78
2022/07/28 09:39:05;;;;;;;13.85;2.25;;;17.90;99.90;;;;;;5033921;28;20040;-79
2022/07/28 09:41:56;;;;;;;9.10;2.67;;;17.90;99.90;;;;;;5034503;28;20021;-78
2022/07/28 09:44:23;;;;;;;10.35;2.15;;;18.00;99.90;;;;;;5034552;28;20018;-79
2022/07/28 09:46:49;;;;;;;13.43;1.73;;;18.00;99.90;;;;;;5034602;28;20368;-78
2022/07/28 09:49:15;;;;;;;13.70;2.17;;;18.10;99.90;;;;;;5034273;28;20036;-78
2022/07/28 09:51:40;;;;;;;10.45;2.08;;;18.20;99.90;;;;;;5034395;28;20029;-78
2022/07/28 09:54:16;;;;;;;13.55;3.15;;;18.30;99.90;;;;;;5034240;28;20048;-78
2022/07/28 09:56:43;;;;;;;9.95;1.92;;;18.50;99.90;;;;;;5032652;28;20040;-78
2022/07/28 09:59:10;;;;;;;6.40;2.13;;;18.60;99.90;;;;;;5034350;28;20913;-79
2022/07/28 10:01:56;;;;;;;8.90;1.80;;;18.70;99.90;;;;;;5034500;28;20029;-78
2022/07/28 10:04:38;;;;;;;16.08;2.72;;;18.60;99.90;;;;;;5033872;28;20029;-78
2022/07/28 10:07:08;;;;;;;10.93;2.22;;;18.70;99.90;;;;;;5034102;28;20044;-79
2022/07/28 10:09:34;;;;;;;10.90;2.05;;;18.70;99.90;;;;;;5034172;28;20108;-78
2022/07/28 10:12:19;;;;;;;4.97;1.42;;;18.70;99.90;;;;;;5033977;28;20036;-79
2022/07/28 10:14:46;;;;;;;13.73;2.13;;;18.70;99.90;;;;;;5027694;28;20025;-78
2022/07/28 10:17:42;;;;;;;18.40;2.78;;;18.70;99.90;;;;;;5033656;28;20030;-79
2022/07/28 10:20:08;;;;;;;6.55;1.80;;;18.80;99.90;;;;;;5020431;28;20124;-78
2022/07/28 10:22:37;;;;;;;13.98;2.88;;;18.80;99.90;;;;;;5033581;28;20037;-78
2022/07/28 10:25:08;;;;;;;7.70;2.55;;;18.90;99.90;;;;;;5032933;28;20072;-78
2022/07/28 10:27:35;;;;;;;15.77;2.92;;;18.90;99.90;;;;;;5013772;28;20187;-78
2022/07/28 10:30:03;;;;;;;14.50;1.98;;;19.00;99.90;;;;;;5034632;28;20492;-79
2022/07/28 10:32:34;;;;;;;8.48;2.10;;;19.10;99.90;;;;;;5027396;28;20021;-78
2022/07/28 10:35:19;;;;;;;17.40;2.55;;;19.30;99.90;;;;;;5026247;28;20017;-78
2022/07/28 10:38:01;;;;;;;11.27;1.92;;;19.30;99.90;;;;;;5041448;28;20053;-79
2022/07/28 10:40:30;;;;;;;10.30;1.73;;;19.40;99.90;;;;;;5032040;28;20033;-79
2022/07/28 10:42:57;;;;;;;5.10;1.58;;;19.40;99.90;;;;;;5033598;28;20033;-78
2022/07/28 10:45:23;;;;;;;11.13;2.70;;;19.40;99.90;;;;;;5033236;28;20171;-79
2022/07/28 10:47:48;;;;;;;11.90;1.90;;;19.50;99.90;;;;;;5029983;28;20959;-78
2022/07/28 10:50:15;;;;;;;9.90;2.03;;;19.60;99.90;;;;;;5030227;28;20057;-79
2022/07/28 10:52:42;;;;;;;13.95;2.17;;;19.70;99.90;;;;;;5033194;28;20025;-78
2022/07/28 10:55:32;;;;;;;8.00;2.05;;;19.80;99.90;;;;;;5038876;28;20123;-78
2022/07/28 10:58:06;;;;;;;16.38;2.42;;;19.90;99.90;;;;;;5028295;28;20029;-78
2022/07/28 11:00:34;;;;;;;4.18;1.58;;;19.90;99.90;;;;;;5032770;28;20031;-79
2022/07/28 11:03:01;;;;;;;7.65;1.58;;;19.80;99.90;;;;;;5032733;28;20013;-79
2022/07/28 11:05:41;;;;;;;9.55;2.28;;;19.80;99.90;;;;;;5032994;28;20362;-79
2022/07/28 11:08:15;;;;;;;8.95;1.95;;;19.80;99.90;;;;;;5028149;28;20021;-78
2022/07/28 11:10:51;;;;;;;7.57;1.97;;;19.90;99.90;;;;;;5031251;28;20026;-78
2022/07/28 11:13:31;;;;;;;17.65;2.65;;;19.80;99.90;;;;;;5032281;28;20400;-79
2022/07/28 11:16:19;;;;;;;14.98;2.33;;;19.70;99.90;;;;;;5031856;28;20025;-79
2022/07/28 11:19:06;;;;;;;9.55;2.70;;;19.70;99.90;;;;;;5032435;28;20071;-79
2022/07/28 11:21:33;;;;;;;10.55;1.88;;;19.60;99.90;;;;;;5030682;28;20033;-78
2022/07/28 11:23:59;;;;;;;13.35;2.10;;;19.70;99.90;;;;;;5032105;28;20478;-78
2022/07/28 11:26:33;;;;;;;10.30;1.98;;;19.70;99.90;;;;;;5028517;28;20032;-79
2022/07/28 11:28:59;;;;;;;8.07;1.98;;;19.80;99.90;;;;;;5031778;28;20076;-79
2022/07/28 11:31:43;;;;;;;8.75;2.03;;;19.90;99.90;;;;;;5031713;28;20061;-79
2022/07/28 11:34:09;;;;;;;13.38;2.30;;;20.10;99.50;;;;;;5035373;28;20021;-79
2022/07/28 11:37:01;;;;;;;10.82;2.00;;;20.00;98.30;;;;;;5052512;28;20032;-78
2022/07/28 11:39:34;;;;;;;4.15;1.55;;;20.00;98.90;;;;;;5052718;28;20025;-79
2022/07/28 11:42:31;;;;;;;10.77;2.45;;;20.10;99.40;;;;;;5052143;28;20183;-79
2022/07/28 11:45:16;;;;;;;;;;;20.10;98.30;;;;;;5036075;28;20109;-79
2022/07/28 11:47:42;;;;;;;7.70;1.92;;;20.20;97.30;;;;;;5030455;28;20313;-79
2022/07/28 11:50:15;;;;;;;14.38;3.15;;;20.30;97.00;;;;;;5031665;28;20118;-79
2022/07/28 11:52:54;;;;;;;9.38;1.63;;;20.30;94.90;;;;;;5012881;28;20034;-79
2022/07/28 11:55:20;;;;;;;6.57;1.63;;;20.40;95.40;;;;;;5026793;28;20037;-79
2022/07/28 11:57:46;;;;;;;12.75;1.80;;;20.40;95.80;;;;;;5023229;28;20037;-79
2022/07/28 12:00:19;;;;;;;7.43;1.95;;;20.40;94.70;;;;;;5031901;28;20026;-79
2022/07/28 12:02:44;;;;;;;7.15;2.25;;;20.40;96.10;;;;;;5031929;28;20407;-79
2022/07/28 12:05:13;;;;;;;9.05;1.80;;;20.60;93.20;;;;;;5013530;28;20021;-79
2022/07/28 12:07:41;;;;;;;7.35;1.70;;;20.70;92.50;;;;;;5014607;28;20116;-79
2022/07/28 12:10:26;;;;;;;15.00;1.70;;;20.80;95.10;;;;;;5027130;28;20117;-79
2022/07/28 12:12:54;;;;;;;7.97;1.73;;;20.90;91.00;;;;;;5019975;28;20032;-79
2022/07/28 12:15:21;;;;;;;18.00;1.83;;;20.90;90.60;;;;;;5032032;28;20040;-79
2022/07/28 12:17:47;;;;;;;6.80;1.90;;;20.90;89.10;;;;;;5031073;28;20108;-79
2022/07/28 12:20:16;;;;;;;15.00;2.08;;;20.90;84.30;;;;;;5017821;28;20032;-79
2022/07/28 12:22:54;;;;;;;10.32;2.15;;;20.90;83.00;;;;;;5035794;28;20037;-79
2022/07/28 12:25:20;;;;;;;10.73;2.20;;;20.90;87.30;;;;;;5038385;28;20022;-79
2022/07/28 12:27:45;;;;;;;10.13;2.05;;;21.00;89.10;;;;;;5036020;28;20520;-79
2022/07/28 12:30:12;;;;;;;5.05;1.42;;;21.30;87.30;;;;;;5035424;28;20045;-79
2022/07/28 12:32:38;;;;;;;9.57;1.70;;;21.30;82.00;;;;;;5043419;28;20036;-79
2022/07/28 12:35:04;;;;;;;6.18;1.60;;;21.30;77.40;;;;;;5037809;28;20029;-79
2022/07/28 12:37:30;;;;;;;14.18;2.10;;;21.20;78.60;;;;;;5035346;28;20040;-79
2022/07/28 12:39:56;;;;;;;4.55;1.40;;;21.20;77.50;;;;;;5035726;28;20412;-79
2022/07/28 12:42:29;;;;;;;11.93;1.83;;;21.20;78.70;;;;;;5035197;28;20017;-79
2022/07/28 12:45:00;;;;;;;7.63;1.75;;;21.20;75.40;;;;;;5035509;28;20026;-79
2022/07/28 12:47:26;;;;;;;3.53;1.17;;;21.20;76.80;;;;;;5035054;28;20076;-79
2022/07/28 12:50:08;;;;;;;5.13;1.30;;;21.20;77.10;;;;;;5034713;28;20064;-79
2022/07/28 12:52:34;;;;;;;9.13;1.42;;;21.30;77.50;;;;;;5034909;28;20026;-79